AirNav   Pilot Hours Calculator
 
 338 users online  

NM05 Cielo Dorado Estates Airport
Santa Teresa, New Mexico, USA

GOING TO SANTA TERESA?


FAA INFORMATION EFFECTIVE 31 JANUARY 2019

Location

FAA Identifier: NM05
Lat/Long: 31-54-33.3720N / 106-38-27.9720W
31-54.556200N / 106-38.466200W
31.9092700 / -106.6411033
(estimated)
Elevation: 3750 ft. / 1143 m (estimated)
Variation: 11E (1985)
From city: 4 miles N of SANTA TERESA, NM
Time zone: UTC -7 (UTC -6 during Daylight Saving Time)
Zip code: 79835

Airport Operations

Airport use: Private use. Permission required prior to landing
Activation date: 08/2015
Control tower: no
ARTCC: ALBUQUERQUE CENTER
FSS: ALBUQUERQUE FLIGHT SERVICE STATION
Attendance: UNATNDD
Wind indicator: yes
Segmented circle: no
Lights: ACTVT MIRL RWY NE/SW - 122.9. ACTVT PAPI RWY SW - 122.9 (3 CLICKS)
Beacon: white-green (lighted land airport)
ACTVT ROTG BCN - 122.9.

Airport Communications

UNICOM: 122.725
WX AWOS-3PT at DNA (4 nm SW): 124.175 (575-589-2643)
WX ASOS at ELP (15 nm SE): PHONE 915-774-9497

Nearby radio navigation aids

VOR radial/distance  VOR name  Freq  Var
EWMr250/18.9NEWMAN VORTAC112.4012E
ELPr275/19.1EL PASO VORTAC115.2012E
CJSr315/19.7CIUDAD JUAREZ VOR/DME116.7011E

Airport Services

Runway Information

Runway NE/SW

Dimensions: 4000 x 50 ft. / 1219 x 15 m
Surface: asphalt
Runway edge lights: medium intensity
RUNWAY NE  RUNWAY SW
Traffic pattern: rightright
Visual slope indicator: 2-light PAPI on left

Airport Ownership and Management from official FAA records

Ownership: Privately-owned
Owner: CIELO DORADO HOMEOWNERS ASSOC.
17 CIELO DEL OESTE
ANTHONY, NM 88021
Phone 9157604533
Manager: CIELO DORADO HOMEOWNERS ASSOC.
PO BOX 1718
SUNLAND PARK, NM 88063
Phone (915) 630-7073

Airport Operational Statistics

Aircraft based on the field: 31
Single engine airplanes: 20
Multi engine airplanes: 8
Helicopters: 1
Ultralights: 2
    

Instrument Procedures

There are no published instrument procedures at NM05.

Some nearby airports with instrument procedures:

KDNA - Dona Ana County International Jetport Airport (4 nm SW)
KBIF - Biggs Army Airfield (Fort Bliss) (14 nm E)
KELP - El Paso International Airport (15 nm SE)
KLRU - Las Cruces International Airport (27 nm NW)
KDMN - Deming Municipal Airport (59 nm W)
 
Loc | Ops | Rwys | IFR | FBO | Links
Com | Nav | Svcs | Stats | Notes
Aerial photo
WARNING: Photo may not be current or correct
Aerial photo of NM05 (Cielo Dorado Estates Airport)
Photo by Stan & Jean Bush
Photo taken 24-Apr-2016
looking west.

Do you have a better or more recent aerial photo of Cielo Dorado Estates Airport that you would like to share? If so, please send us your photo.

 
Airport distance calculator
Flying to Cielo Dorado Estates Airport? Find the distance to fly.

From to NM05

Sunrise and sunset
Times for 18-Feb-2019
 Local
(UTC-7)
 Zulu
(UTC)
Morning civil twilight06:2213:22
Sunrise06:4713:47
Sunset17:5400:54
Evening civil twilight18:1901:19

Current date and time
Zulu (UTC)  18-Feb-2019 09:18:53
Local (UTC-7)  18-Feb-2019 02:18:53
 
METAR
KDNA 
4nm SW 
180855Z AUTO 36003KT 10SM CLR 02/M11 A3000 RMK AO2
KBIF 
14nm E 
180758Z AUTO 00000KT M M CLR 04/M12 A2998 RMK AO2 SLP131 T00351116 $
KELP 
14nm SE 
180851Z 33005KT 10SM FEW220 06/M09 A2998 RMK AO2 SLP123 T00561094 50002
TAF
KBIF 
14nm E 
180603Z 1806/1912 VRB06KT 9999 SKC QNH2995INS BECMG 1818/1819 13009KT 9999 SKC QNH2996INS BECMG 1820/1821 18010G15KT 9999 SKC QNH2985INS BECMG 1902/1903 VRB06KT 9999 SKC QNH2987INS TX17/1821Z TN02/1813Z
KELP 
14nm SE 
180545Z 1806/1906 32008KT P6SM SKC FM181800 14008KT P6SM SCT250 FM182200 25012G18KT P6SM SCT200
NOTAMs
Click for the latest NOTAMs
NOTAMs are issued by the DoD/FAA and will open in a separate window not controlled by AirNav.

 

 
 

Would you like to see your business listed on this page?

 If your business provides an interesting product or service to pilots, flight crews, aircraft, or users of the Cielo Dorado Estates Airport, you should consider listing it here.  To start the listing process, click on the button below
 
Add a business
 

Other Pages about Cielo Dorado Estates Airport

Update a link
 
Copyright © AirNav, LLC. All rights reserved. Privacy Policy  Contact